Time;durP1;ratioP1;P1;durP2;ratioP2;P2;SDS_P1;SDS_P2;PMS_P1;PMS_P2;Temp;Humidity;BMP_temperature;BMP_pressure;BME280_temperature;BME280_humidity;BME280_pressure;Samples;Min_cycle;Max_cycle;Signal;HPM_P1;HPM_P2
2022/11/12 00:00:33;;;;;;;;;;;;;;;16.10;70.21;102809.25;1266600;23;708;-70
2022/11/12 00:01:23;;;;;;;;;;;;;;;16.11;69.44;102799.34;1267298;23;1192;-70
2022/11/12 00:02:13;;;;;;;;;;;;;;;16.08;69.49;102803.06;1267635;23;977;-70
2022/11/12 00:03:04;;;;;;;;;;;;;;;16.08;70.19;102800.38;1265854;23;661;-70
2022/11/12 00:03:56;;;;;;;;;;;;;;;16.07;70.10;102801.34;1267402;23;685;-71
2022/11/12 00:04:46;;;;;;;;;;;;;;;16.08;70.02;102796.84;1266627;23;709;-70
2022/11/12 00:05:37;;;;;;;;;;;;;;;16.08;69.79;102805.78;1260976;23;642;-70
2022/11/12 00:06:27;;;;;;;;;;;;;;;16.09;69.72;102802.13;1262005;23;640;-70
2022/11/12 00:07:17;;;;;;;;;;;;;;;16.09;69.80;102795.88;1268280;23;676;-71
2022/11/12 00:08:08;;;;;;;;;;;;;;;16.09;69.83;102803.94;1265707;23;642;-70
2022/11/12 00:08:58;;;;;;;;;;;;;;;16.08;70.00;102803.06;1267441;23;715;-70
2022/11/12 00:09:49;;;;;;;;;;;;;;;16.08;69.41;102803.06;1266529;23;660;-70
2022/11/12 00:10:39;;;;;;;;;;;;;;;16.07;69.27;102806.72;1265908;23;582;-71
2022/11/12 00:11:29;;;;;;;;;;;;;;;16.09;69.50;102804.81;1267521;23;671;-70
2022/11/12 00:12:20;;;;;;;;;;;;;;;16.10;69.70;102808.38;1267466;23;609;-70
2022/11/12 00:13:10;;;;;;;;;;;;;;;16.07;69.26;102801.34;1267589;23;699;-70
2022/11/12 00:14:01;;;;;;;;;;;;;;;16.07;69.92;102806.72;1265594;23;625;-70
2022/11/12 00:14:51;;;;;;;;;;;;;;;16.08;70.06;102808.47;1261206;23;613;-70
2022/11/12 00:15:41;;;;;;;;;;;;;;;16.07;69.85;102809.41;1261277;23;672;-70
2022/11/12 00:16:32;;;;;;;;;;;;;;;16.06;69.66;102804.97;1267510;23;648;-70
2022/11/12 00:17:22;;;;;;;;;;;;;;;16.07;69.51;102809.41;1267505;23;597;-71
2022/11/12 00:18:13;;;;;;;;;;;;;;;16.06;69.64;102804.97;1267451;23;621;-71
2022/11/12 00:19:03;;;;;;;;;;;;;;;16.03;69.70;102805.16;1261077;23;1934;-70
2022/11/12 00:19:54;;;;;;;;;;;;;;;16.05;70.01;102808.63;1261934;23;538;-71
2022/11/12 00:20:44;;;;;;;;;;;;;;;16.07;69.90;102804.03;1268368;23;613;-71
2022/11/12 00:21:34;;;;;;;;;;;;;;;16.07;69.64;102804.03;1267125;23;664;-70
2022/11/12 00:22:25;;;;;;;;;;;;;;;16.06;69.60;102804.97;1265795;23;685;-70
2022/11/12 00:23:15;;;;;;;;;;;;;;;16.05;69.69;102802.38;1265995;23;609;-70
2022/11/12 00:24:06;;;;;;;;;;;;;;;16.05;69.67;102799.69;1265690;23;653;-70
2022/11/12 00:24:56;;;;;;;;;;;;;;;16.05;69.49;102791.63;1265831;23;630;-70
2022/11/12 00:25:47;;;;;;;;;;;;;;;16.04;69.55;102796.13;1267389;23;625;-70
2022/11/12 00:26:37;;;;;;;;;;;;;;;16.04;69.87;102795.25;1265693;23;882;-70
2022/11/12 00:27:27;;;;;;;;;;;;;;;16.01;69.67;102796.31;1265989;23;637;-70
2022/11/12 00:28:18;;;;;;;;;;;;;;;16.02;70.06;102789.97;1265784;23;590;-70
2022/11/12 00:29:08;;;;;;;;;;;;;;;16.02;69.13;102781.91;1265941;23;688;-70
2022/11/12 00:29:59;;;;;;;;;;;;;;;16.02;69.42;102784.59;1265335;23;704;-70
2022/11/12 00:30:49;;;;;;;;;;;;;;;16.04;69.68;102795.25;1265799;23;688;-70
2022/11/12 00:31:40;;;;;;;;;;;;;;;16.04;69.77;102785.38;1267383;23;594;-70
2022/11/12 00:32:30;;;;;;;;;;;;;;;16.04;69.37;102788.06;1265868;23;622;-69
2022/11/12 00:33:21;;;;;;;;;;;;;;;16.03;69.52;102786.31;1267460;23;644;-69
2022/11/12 00:34:11;;;;;;;;;;;;;;;16.01;69.53;102782.84;1265786;23;601;-69
2022/11/12 00:35:02;;;;;;;;;;;;;;;16.03;69.34;102782.78;1265838;23;650;-69
2022/11/12 00:35:52;;;;;;;;;;;;;;;16.01;69.83;102785.53;1265754;23;610;-70
2022/11/12 00:36:42;;;;;;;;;;;;;;;16.01;69.49;102785.53;1265921;23;641;-70
2022/11/12 00:37:33;;;;;;;;;;;;;;;16.00;69.75;102786.50;1267428;23;886;-70
2022/11/12 00:38:23;;;;;;;;;;;;;;;16.01;69.61;102790.06;1265810;23;633;-70
2022/11/12 00:39:14;;;;;;;;;;;;;;;16.01;69.60;102796.31;1265521;23;1877;-70
2022/11/12 00:40:04;;;;;;;;;;;;;;;16.01;69.17;102799.00;1265791;23;570;-70
2022/11/12 00:40:55;;;;;;;;;;;;;;;16.02;69.49;102799.84;1267393;23;677;-70
2022/11/12 00:41:45;;;;;;;;;;;;;;;16.01;69.38;102796.31;1261018;23;629;-70
2022/11/12 00:42:35;;;;;;;;;;;;;;;16.01;69.54;102790.94;1261734;23;594;-70
2022/11/12 00:43:26;;;;;;;;;;;;;;;16.01;69.99;102787.38;1267410;23;598;-70
2022/11/12 00:44:16;;;;;;;;;;;;;;;16.02;69.40;102798.03;1266823;23;669;-70
2022/11/12 00:45:08;;;;;;;;;;;;;;;16.00;69.58;102791.00;1265671;23;665;-69
2022/11/12 00:45:58;;;;;;;;;;;;;;;16.00;69.79;102797.25;1261045;23;677;-70
2022/11/12 00:46:49;;;;;;;;;;;;;;;16.00;69.95;102797.25;1261930;23;634;-70
2022/11/12 00:47:39;;;;;;;;;;;;;;;15.98;69.78;102797.34;1267482;23;649;-69
2022/11/12 00:48:30;;;;;;;;;;;;;;;15.98;69.73;102791.97;1265634;23;610;-69
2022/11/12 00:49:20;;;;;;;;;;;;;;;15.99;69.59;102787.44;1261098;23;677;-70
2022/11/12 00:50:11;;;;;;;;;;;;;;;16.00;69.50;102793.69;1262943;23;641;-69
2022/11/12 00:51:01;;;;;;;;;;;;;;;16.00;69.56;102791.88;1267409;23;664;-69
2022/11/12 00:51:52;;;;;;;;;;;;;;;15.98;69.52;102794.66;1267306;23;708;-70
2022/11/12 00:52:42;;;;;;;;;;;;;;;16.01;69.86;102787.38;1265790;23;610;-70
2022/11/12 00:53:32;;;;;;;;;;;;;;;16.00;69.43;102791.00;1261147;23;637;-69
2022/11/12 00:54:23;;;;;;;;;;;;;;;15.99;69.67;102792.81;1262016;23;613;-70
2022/11/12 00:55:13;;;;;;;;;;;;;;;16.00;69.87;102794.56;1267473;23;550;-70
2022/11/12 00:56:04;;;;;;;;;;;;;;;15.97;69.07;102790.22;1267361;23;712;-69
2022/11/12 00:56:54;;;;;;;;;;;;;;;15.98;69.89;102799.16;1265703;23;654;-69
2022/11/12 00:57:45;;;;;;;;;;;;;;;15.96;69.60;102798.38;1261010;23;636;-69
2022/11/12 00:58:35;;;;;;;;;;;;;;;15.95;69.90;102799.31;1262776;23;652;-70
2022/11/12 00:59:25;;;;;;;;;;;;;;;15.93;69.83;102793.19;1267576;23;677;-69
2022/11/12 01:00:16;;;;;;;;;;;;;;;15.96;69.90;102793.00;1265650;23;625;-70
2022/11/12 01:01:06;;;;;;;;;;;;;;;15.94;69.79;102795.78;1265622;23;1040;-70
2022/11/12 01:01:57;;;;;;;;;;;;;;;15.95;69.62;102792.13;1265701;23;626;-70
2022/11/12 01:02:47;;;;;;;;;;;;;;;15.97;70.00;102794.72;1265971;23;685;-70
2022/11/12 01:03:38;;;;;;;;;;;;;;;15.96;69.53;102793.00;1265604;23;618;-69
2022/11/12 01:04:28;;;;;;;;;;;;;;;15.94;69.82;102801.16;1260834;23;700;-69
2022/11/12 01:05:19;;;;;;;;;;;;;;;15.95;69.49;102796.63;1261997;23;629;-69
2022/11/12 01:06:09;;;;;;;;;;;;;;;15.95;69.63;102794.81;1267509;23;601;-70
2022/11/12 01:07:00;;;;;;;;;;;;;;;15.95;69.53;102796.63;1266739;23;698;-70
2022/11/12 01:07:50;;;;;;;;;;;;;;;15.96;69.58;102799.25;1267437;23;650;-69
2022/11/12 01:08:40;;;;;;;;;;;;;;;15.98;69.66;102793.78;1267452;23;618;-70
2022/11/12 01:09:31;;;;;;;;;;;;;;;15.98;69.67;102791.09;1265533;23;619;-70
2022/11/12 01:10:21;;;;;;;;;;;;;;;15.96;69.47;102793.88;1265883;23;614;-70
2022/11/12 01:11:12;;;;;;;;;;;;;;;15.96;69.13;102793.00;1267369;23;637;-70
2022/11/12 01:12:02;;;;;;;;;;;;;;;15.95;69.49;102796.63;1265718;23;653;-69
2022/11/12 01:12:52;;;;;;;;;;;;;;;15.94;69.62;102794.94;1265815;23;622;-69
2022/11/12 01:13:43;;;;;;;;;;;;;;;15.94;69.56;102795.78;1266836;23;638;-70
2022/11/12 01:14:33;;;;;;;;;;;;;;;15.94;69.43;102794.94;1265713;23;700;-70
2022/11/12 01:15:24;;;;;;;;;;;;;;;15.93;69.43;102794.06;1265731;23;610;-70
2022/11/12 01:16:14;;;;;;;;;;;;;;;15.94;69.46;102794.94;1265743;23;612;-70
2022/11/12 01:17:05;;;;;;;;;;;;;;;15.94;69.89;102792.25;1266375;23;640;-69
2022/11/12 01:17:55;;;;;;;;;;;;;;;15.94;69.68;102794.94;1265679;23;606;-69
2022/11/12 01:18:45;;;;;;;;;;;;;;;15.93;69.54;102793.19;1265863;23;669;-69
2022/11/12 01:19:36;;;;;;;;;;;;;;;15.96;69.84;102798.38;1265557;23;606;-70
2022/11/12 01:20:26;;;;;;;;;;;;;;;15.94;69.63;102800.31;1265869;23;862;-69
2022/11/12 01:21:17;;;;;;;;;;;;;;;15.96;69.67;102795.69;1265564;23;626;-69
2022/11/12 01:22:07;;;;;;;;;;;;;;;15.94;69.75;102794.94;1265680;23;637;-70
2022/11/12 01:22:58;;;;;;;;;;;;;;;15.93;69.79;102798.56;1267269;23;637;-69
2022/11/12 01:23:48;;;;;;;;;;;;;;;15.94;69.71;102793.09;1265632;23;618;-70
2022/11/12 01:24:38;;;;;;;;;;;;;;;15.92;69.79;102800.41;1265741;23;658;-70
2022/11/12 01:25:29;;;;;;;;;;;;;;;15.92;69.92;102795.00;1267445;23;704;-70
2022/11/12 01:26:19;;;;;;;;;;;;;;;15.91;69.81;102795.09;1265798;23;649;-70
2022/11/12 01:27:10;;;;;;;;;;;;;;;15.90;69.82;102785.28;1265491;23;696;-70
2022/11/12 01:28:00;;;;;;;;;;;;;;;15.91;69.70;102790.59;1265180;23;653;-70
2022/11/12 01:28:51;;;;;;;;;;;;;;;15.91;69.86;102792.41;1266443;23;575;-71
2022/11/12 01:29:41;;;;;;;;;;;;;;;15.92;69.79;102792.31;1265713;23;602;-69
2022/11/12 01:30:31;;;;;;;;;;;;;;;15.92;69.74;102783.41;1265866;23;614;-70
2022/11/12 01:31:22;;;;;;;;;;;;;;;15.90;69.89;102783.47;1265500;23;657;-69
2022/11/12 01:32:12;;;;;;;;;;;;;;;15.90;69.61;102785.28;1265737;23;718;-69
2022/11/12 01:33:03;;;;;;;;;;;;;;;15.90;69.67;102785.28;1267210;23;590;-69
2022/11/12 01:33:53;;;;;;;;;;;;;;;15.91;70.14;102784.34;1265665;23;631;-69
2022/11/12 01:34:44;;;;;;;;;;;;;;;15.91;69.74;102792.41;1267236;23;688;-69
2022/11/12 01:35:34;;;;;;;;;;;;;;;15.92;69.93;102788.78;1267253;23;649;-70
2022/11/12 01:36:24;;;;;;;;;;;;;;;15.90;70.05;102787.97;1267400;23;661;-69
2022/11/12 01:37:15;;;;;;;;;;;;;;;15.90;69.90;102783.47;1265467;23;658;-69
2022/11/12 01:38:05;;;;;;;;;;;;;;;15.91;69.87;102789.72;1267365;23;586;-70
2022/11/12 01:38:56;;;;;;;;;;;;;;;15.91;69.52;102789.72;1265809;23;656;-70
2022/11/12 01:39:46;;;;;;;;;;;;;;;15.92;69.81;102791.47;1265610;23;606;-69
2022/11/12 01:40:36;;;;;;;;;;;;;;;15.92;69.81;102796.84;1265819;23;658;-70
2022/11/12 01:41:27;;;;;;;;;;;;;;;15.92;69.63;102792.31;1267365;23;602;-70
2022/11/12 01:42:17;;;;;;;;;;;;;;;15.94;69.70;102794.94;1260565;23;669;-69
2022/11/12 01:43:08;;;;;;;;;;;;;;;15.91;69.42;102795.09;1262897;23;629;-69
2022/11/12 01:43:58;;;;;;;;;;;;;;;15.88;69.56;102795.25;1267232;23;633;-70
2022/11/12 01:44:49;;;;;;;;;;;;;;;15.89;69.68;102797.00;1265787;23;657;-69
2022/11/12 01:45:39;;;;;;;;;;;;;;;15.91;69.89;102795.09;1265718;23;598;-69
2022/11/12 01:46:29;;;;;;;;;;;;;;;15.90;69.59;102801.44;1265697;23;657;-70
2022/11/12 01:47:20;;;;;;;;;;;;;;;15.88;69.53;102797.94;1265532;23;615;-69
2022/11/12 01:48:10;;;;;;;;;;;;;;;15.89;69.86;102799.69;1265748;23;653;-70
2022/11/12 01:49:01;;;;;;;;;;;;;;;15.88;69.79;102800.66;1265825;23;610;-70
2022/11/12 01:49:51;;;;;;;;;;;;;;;15.86;69.57;102802.53;1265568;23;645;-70
2022/11/12 01:50:42;;;;;;;;;;;;;;;15.87;70.05;102809.66;1265918;23;622;-70
2022/11/12 01:51:32;;;;;;;;;;;;;;;15.87;69.93;102807.84;1265550;23;677;-70
2022/11/12 01:52:22;;;;;;;;;;;;;;;15.88;69.52;102806.88;1265634;23;696;-70
2022/11/12 01:53:13;;;;;;;;;;;;;;;15.90;69.72;102806.81;1265297;23;595;-70
2022/11/12 01:54:03;;;;;;;;;;;;;;;15.89;69.67;102814.00;1265574;23;637;-70
2022/11/12 01:54:54;;;;;;;;;;;;;;;15.88;69.99;102814.97;1265877;23;536;-70
2022/11/12 01:55:44;;;;;;;;;;;;;;;15.89;69.66;102814.00;1265479;23;647;-70
2022/11/12 01:56:35;;;;;;;;;;;;;;;15.89;69.68;102815.81;1260871;23;637;-70
2022/11/12 01:57:25;;;;;;;;;;;;;;;15.90;69.69;102809.50;1261616;23;816;-71
2022/11/12 01:58:15;;;;;;;;;;;;;;;15.88;69.67;102809.56;1267313;23;795;-70
2022/11/12 01:59:06;;;;;;;;;;;;;;;15.90;69.68;102810.38;1265359;23;1893;-70
2022/11/12 01:59:56;;;;;;;;;;;;;;;15.89;69.84;102813.13;1265591;23;627;-70
2022/11/12 02:00:47;;;;;;;;;;;;;;;15.89;69.59;102803.25;1265668;23;688;-71
2022/11/12 02:01:37;;;;;;;;;;;;;;;15.89;69.96;102799.69;1265435;23;652;-70
2022/11/12 02:02:27;;;;;;;;;;;;;;;15.88;69.79;102797.94;1265614;23;638;-71
2022/11/12 02:03:18;;;;;;;;;;;;;;;15.89;69.42;102799.69;1265563;23;626;-70
2022/11/12 02:04:08;;;;;;;;;;;;;;;15.88;70.10;102803.34;1265638;23;657;-69
2022/11/12 02:04:59;;;;;;;;;;;;;;;15.88;69.70;102800.66;1265803;23;618;-70
2022/11/12 02:05:49;;;;;;;;;;;;;;;15.86;69.61;102799.84;1265554;23;606;-70
2022/11/12 02:06:40;;;;;;;;;;;;;;;15.86;70.21;102808.78;1265651;23;642;-70
2022/11/12 02:07:30;;;;;;;;;;;;;;;15.85;69.99;102809.75;1265538;23;625;-70
2022/11/12 02:08:21;;;;;;;;;;;;;;;15.86;69.72;102810.63;1260828;23;673;-70
2022/11/12 02:09:11;;;;;;;;;;;;;;;15.87;70.25;102806.97;1261703;23;699;-70
2022/11/12 02:10:01;;;;;;;;;;;;;;;15.87;69.55;102806.97;1267217;23;778;-69
2022/11/12 02:10:52;;;;;;;;;;;;;;;15.85;69.98;102804.38;1265298;23;630;-69
2022/11/12 02:11:42;;;;;;;;;;;;;;;15.88;69.36;102806.88;1265073;23;638;-69
2022/11/12 02:14:04;;;;;;;;;;;;;;;15.87;69.64;102805.16;1268166;23;672;-69
2022/11/12 02:14:53;;;;;;;;;;;;;;;15.86;69.94;102806.09;1267184;23;667;-71
2022/11/12 02:15:43;;;;;;;;;;;;;;;15.87;69.96;102806.97;1265783;23;618;-70
2022/11/12 02:16:34;;;;;;;;;;;;;;;15.85;69.85;102811.56;1265741;23;629;-70
2022/11/12 02:17:24;;;;;;;;;;;;;;;15.84;69.87;102804.44;1265480;23;602;-70
2022/11/12 02:18:15;;;;;;;;;;;;;;;15.84;69.88;102799.06;1265697;23;625;-70
2022/11/12 02:19:05;;;;;;;;;;;;;;;15.83;70.54;102800.91;1267201;23;1956;-70
2022/11/12 02:19:55;;;;;;;;;;;;;;;15.85;70.25;102801.69;1265563;23;740;-70
2022/11/12 02:20:46;;;;;;;;;;;;;;;15.87;70.16;102798.91;1265356;23;660;-70
2022/11/12 02:21:36;;;;;;;;;;;;;;;15.86;70.22;102797.16;1265541;23;646;-69
2022/11/12 02:22:27;;;;;;;;;;;;;;;15.87;70.28;102798.91;1265648;23;645;-70
2022/11/12 02:23:17;;;;;;;;;;;;;;;15.87;69.78;102798.91;1265680;23;669;-70
2022/11/12 02:24:08;;;;;;;;;;;;;;;15.87;70.40;102793.53;1265847;23;614;-70
2022/11/12 02:24:58;;;;;;;;;;;;;;;15.86;70.11;102800.72;1265400;23;646;-70
2022/11/12 02:25:48;;;;;;;;;;;;;;;15.87;69.93;102798.91;1265042;23;708;-70
2022/11/12 02:26:39;;;;;;;;;;;;;;;15.86;70.13;102795.34;1267227;23;626;-69
2022/11/12 02:27:29;;;;;;;;;;;;;;;15.86;70.25;102792.66;1260742;23;617;-69
2022/11/12 02:28:20;;;;;;;;;;;;;;;15.86;70.09;102786.41;1261645;23;590;-70
2022/11/12 02:29:10;;;;;;;;;;;;;;;15.84;69.66;102789.19;1267172;23;648;-70
2022/11/12 02:30:00;;;;;;;;;;;;;;;15.85;70.14;102788.22;1265700;23;676;-69
2022/11/12 02:30:51;;;;;;;;;;;;;;;15.84;70.14;102786.50;1265500;23;605;-69
2022/11/12 02:31:41;;;;;;;;;;;;;;;15.85;70.61;102790.06;1265543;23;705;-69
2022/11/12 02:32:32;;;;;;;;;;;;;;;15.85;70.14;102790.06;1265211;23;658;-70
2022/11/12 02:33:22;;;;;;;;;;;;;;;15.86;70.11;102794.47;1265403;23;617;-69
2022/11/12 02:34:13;;;;;;;;;;;;;;;15.82;70.20;102785.72;1265766;23;697;-69
2022/11/12 02:35:03;;;;;;;;;;;;;;;15.85;69.85;102795.44;1265361;23;610;-70
2022/11/12 02:35:53;;;;;;;;;;;;;;;15.87;69.60;102796.22;1265530;23;669;-69
2022/11/12 02:36:44;;;;;;;;;;;;;;;15.87;70.19;102782.78;1260760;23;597;-70
2022/11/12 02:37:34;;;;;;;;;;;;;;;15.84;69.88;102788.31;1257248;23;676;-70
2022/11/12 02:38:25;;;;;;;;;;;;;;;15.83;69.90;102787.44;1262377;23;592;-70
2022/11/12 02:39:15;;;;;;;;;;;;;;;15.84;69.97;102791.00;1266140;23;1885;-70
2022/11/12 02:40:06;;;;;;;;;;;;;;;15.84;70.48;102785.63;1267164;23;641;-70
2022/11/12 02:40:56;;;;;;;;;;;;;;;15.85;70.20;102787.38;1267188;23;617;-70
2022/11/12 02:41:46;;;;;;;;;;;;;;;15.84;70.53;102791.00;1267139;23;650;-70
2022/11/12 02:42:37;;;;;;;;;;;;;;;15.85;70.08;102790.06;1267144;23;652;-70
2022/11/12 02:43:27;;;;;;;;;;;;;;;15.84;70.10;102791.00;1265474;23;661;-70
2022/11/12 02:44:18;;;;;;;;;;;;;;;15.84;70.16;102785.63;1265786;23;619;-69
2022/11/12 02:45:08;;;;;;;;;;;;;;;15.83;70.25;102781.19;1260775;23;668;-70
2022/11/12 02:45:58;;;;;;;;;;;;;;;15.85;69.87;102779.31;1261609;23;691;-69
2022/11/12 02:46:49;;;;;;;;;;;;;;;15.83;69.41;102778.50;1267313;23;649;-70
2022/11/12 02:47:39;;;;;;;;;;;;;;;15.83;70.48;102776.69;1265434;23;657;-69
2022/11/12 02:48:30;;;;;;;;;;;;;;;15.82;70.04;102769.59;1267209;23;598;-69
2022/11/12 02:49:20;;;;;;;;;;;;;;;15.85;70.10;102773.91;1265450;23;665;-70
2022/11/12 02:50:11;;;;;;;;;;;;;;;15.83;70.16;102765.06;1265744;23;669;-69
2022/11/12 02:51:01;;;;;;;;;;;;;;;15.83;70.40;102765.06;1264705;23;653;-70
2022/11/12 02:51:52;;;;;;;;;;;;;;;15.84;70.05;102761.44;1266303;23;684;-70
2022/11/12 02:52:42;;;;;;;;;;;;;;;15.85;70.07;102765.84;1265390;23;654;-71
2022/11/12 02:53:33;;;;;;;;;;;;;;;15.86;70.16;102767.59;1265738;23;595;-71
2022/11/12 02:54:23;;;;;;;;;;;;;;;15.86;70.00;102768.47;1265558;23;609;-71
2022/11/12 02:55:14;;;;;;;;;;;;;;;15.87;70.36;102770.19;1265041;23;657;-71
2022/11/12 02:56:04;;;;;;;;;;;;;;;15.84;69.99;102773.06;1267130;23;605;-71
2022/11/12 02:56:54;;;;;;;;;;;;;;;15.84;70.07;102767.69;1265587;23;676;-71
2022/11/12 02:57:45;;;;;;;;;;;;;;;15.82;70.52;102768.72;1265308;23;696;-71
2022/11/12 02:58:35;;;;;;;;;;;;;;;15.83;69.95;102768.63;1265388;23;637;-71
2022/11/12 02:59:26;;;;;;;;;;;;;;;15.83;70.33;102765.06;1267096;23;1873;-71
2022/11/12 03:00:17;;;;;;;;;;;;;;;15.84;70.24;102767.69;1267056;23;633;-71
2022/11/12 03:01:07;;;;;;;;;;;;;;;15.85;70.41;102757.78;1264462;23;1043;-71
2022/11/12 03:01:58;;;;;;;;;;;;;;;15.84;70.23;102761.44;1265660;23;637;-71
2022/11/12 03:03:06;;;;;;;;;;;;;;;15.84;69.97;102761.44;1267146;23;629;-71
2022/11/12 03:03:57;;;;;;;;;;;;;;;15.81;69.90;102757.09;1260797;23;696;-71
2022/11/12 03:04:47;;;;;;;;;;;;;;;15.82;69.92;102763.34;1261605;23;689;-71
2022/11/12 03:05:37;;;;;;;;;;;;;;;15.83;70.02;102763.25;1267997;23;633;-71
2022/11/12 03:06:28;;;;;;;;;;;;;;;15.82;70.10;102764.22;1265308;23;701;-71
2022/11/12 03:07:18;;;;;;;;;;;;;;;15.84;69.50;102758.75;1267141;23;615;-71
2022/11/12 03:08:09;;;;;;;;;;;;;;;15.87;69.82;102766.66;1265730;23;642;-71
2022/11/12 03:08:59;;;;;;;;;;;;;;;15.85;69.84;102766.72;1265490;23;657;-71
2022/11/12 03:09:50;;;;;;;;;;;;;;;15.86;70.26;102772.97;1265646;23;677;-70
2022/11/12 03:10:40;;;;;;;;;;;;;;;15.84;70.32;102766.81;1267283;23;613;-69
2022/11/12 03:11:30;;;;;;;;;;;;;;;15.81;70.31;102775.91;1265532;23;654;-70
2022/11/12 03:12:21;;;;;;;;;;;;;;;15.81;70.15;102769.66;1265698;23;615;-70
2022/11/12 03:13:11;;;;;;;;;;;;;;;15.82;69.80;102779.47;1265462;23;539;-70
2022/11/12 03:14:02;;;;;;;;;;;;;;;15.80;69.91;102776.00;1265649;23;634;-70
2022/11/12 03:14:52;;;;;;;;;;;;;;;15.80;70.01;102776.00;1265433;23;602;-70
2022/11/12 03:15:43;;;;;;;;;;;;;;;15.83;70.56;102776.69;1265559;23;637;-71
2022/11/12 03:16:33;;;;;;;;;;;;;;;15.85;70.32;102776.63;1267156;23;653;-70
2022/11/12 03:17:23;;;;;;;;;;;;;;;15.84;69.86;102769.50;1267248;23;652;-70
2022/11/12 03:18:14;;;;;;;;;;;;;;;15.82;70.00;102769.59;1267213;23;622;-70
2022/11/12 03:19:04;;;;;;;;;;;;;;;15.85;70.37;102768.56;1265302;23;1945;-70
2022/11/12 03:19:55;;;;;;;;;;;;;;;15.83;70.03;102771.31;1265694;23;729;-70
2022/11/12 03:20:45;;;;;;;;;;;;;;;15.82;70.33;102769.59;1265345;23;598;-70
2022/11/12 03:21:36;;;;;;;;;;;;;;;15.83;69.87;102770.44;1267142;23;652;-70
2022/11/12 03:22:26;;;;;;;;;;;;;;;15.83;70.19;102760.56;1267235;23;645;-71
2022/11/12 03:23:16;;;;;;;;;;;;;;;15.85;70.46;102769.41;1265609;23;646;-70
2022/11/12 03:24:07;;;;;;;;;;;;;;;15.86;70.14;102764.91;1264867;23;614;-70
2022/11/12 03:24:57;;;;;;;;;;;;;;;15.84;70.00;102761.44;1267095;23;744;-70
2022/11/12 03:25:48;;;;;;;;;;;;;;;15.85;70.02;102755.09;1265543;23;650;-70
2022/11/12 03:26:38;;;;;;;;;;;;;;;15.83;70.19;102760.56;1265433;23;630;-70
2022/11/12 03:27:29;;;;;;;;;;;;;;;15.85;69.86;102771.22;1267055;23;676;-71
2022/11/12 03:28:19;;;;;;;;;;;;;;;15.85;69.69;102764.03;1265381;23;570;-71
2022/11/12 03:29:09;;;;;;;;;;;;;;;15.83;69.99;102771.31;1265399;23;642;-70
2022/11/12 03:30:00;;;;;;;;;;;;;;;15.84;70.10;102777.56;1267162;23;551;-70
2022/11/12 03:30:50;;;;;;;;;;;;;;;15.84;69.81;102774.88;1260632;23;657;-70
2022/11/12 03:31:41;;;;;;;;;;;;;;;15.84;69.96;102766.81;1261596;23;656;-70
2022/11/12 03:32:31;;;;;;;;;;;;;;;15.84;70.06;102770.38;1267043;23;604;-71
2022/11/12 03:33:21;;;;;;;;;;;;;;;15.82;70.27;102774.97;1265500;23;650;-71
2022/11/12 03:34:12;;;;;;;;;;;;;;;15.81;70.17;102775.03;1265183;23;740;-70
2022/11/12 03:35:02;;;;;;;;;;;;;;;15.82;70.20;102774.97;1267109;23;569;-70
2022/11/12 03:35:53;;;;;;;;;;;;;;;15.82;70.03;102774.09;1265548;23;677;-70
2022/11/12 03:36:43;;;;;;;;;;;;;;;15.84;70.08;102780.25;1265417;23;638;-70
2022/11/12 03:37:34;;;;;;;;;;;;;;;15.83;70.04;102778.50;1265599;23;649;-71
2022/11/12 03:38:24;;;;;;;;;;;;;;;15.85;69.96;102776.63;1266567;23;621;-70
2022/11/12 03:39:14;;;;;;;;;;;;;;;15.83;69.92;102781.19;1267037;23;1926;-71
2022/11/12 03:40:05;;;;;;;;;;;;;;;15.84;70.07;102783.81;1265714;23;633;-70
2022/11/12 03:40:55;;;;;;;;;;;;;;;15.85;69.99;102780.16;1265513;23;638;-70
2022/11/12 03:41:46;;;;;;;;;;;;;;;15.84;70.26;102786.50;1265710;23;626;-70
2022/11/12 03:42:36;;;;;;;;;;;;;;;15.84;70.31;102782.94;1267060;23;795;-70
2022/11/12 03:43:26;;;;;;;;;;;;;;;15.86;69.80;102781.91;1265450;23;630;-71
2022/11/12 03:44:17;;;;;;;;;;;;;;;15.84;69.59;102786.50;1265640;23;988;-70
2022/11/12 03:45:07;;;;;;;;;;;;;;;15.82;69.55;102782.16;1267224;23;665;-70
2022/11/12 03:45:58;;;;;;;;;;;;;;;15.84;69.68;102782.94;1265537;23;734;-70
2022/11/12 03:46:48;;;;;;;;;;;;;;;15.83;70.11;102781.19;1265400;23;622;-70
2022/11/12 03:47:39;;;;;;;;;;;;;;;15.86;70.03;102776.53;1265528;23;626;-70
2022/11/12 03:48:29;;;;;;;;;;;;;;;15.84;70.04;102781.13;1265326;23;603;-70
2022/11/12 03:49:19;;;;;;;;;;;;;;;15.84;69.44;102783.81;1260777;23;618;-70
2022/11/12 03:50:10;;;;;;;;;;;;;;;15.84;69.75;102782.94;1262216;23;688;-70
2022/11/12 03:51:00;;;;;;;;;;;;;;;15.86;70.12;102781.03;1267080;23;617;-70
2022/11/12 03:51:51;;;;;;;;;;;;;;;15.86;69.75;102778.34;1267160;23;633;-70
2022/11/12 03:52:41;;;;;;;;;;;;;;;15.85;69.74;102779.31;1267058;23;668;-71
2022/11/12 03:53:31;;;;;;;;;;;;;;;15.85;69.86;102768.56;1265497;23;589;-71
2022/11/12 03:54:22;;;;;;;;;;;;;;;15.85;69.84;102776.63;1265630;23;614;-71
2022/11/12 03:55:12;;;;;;;;;;;;;;;15.84;70.03;102772.19;1267161;23;652;-71
2022/11/12 03:56:03;;;;;;;;;;;;;;;15.83;69.78;102765.94;1266336;23;560;-71
2022/11/12 03:56:53;;;;;;;;;;;;;;;15.84;69.71;102773.06;1267431;23;632;-71
2022/11/12 03:57:44;;;;;;;;;;;;;;;15.84;69.52;102773.06;1265938;23;665;-70
2022/11/12 03:58:34;;;;;;;;;;;;;;;15.85;70.02;102768.56;1267580;23;601;-71
2022/11/12 03:59:25;;;;;;;;;;;;;;;15.86;70.08;102765.78;1267422;23;1922;-70
2022/11/12 04:00:15;;;;;;;;;;;;;;;15.86;70.12;102764.91;1265621;23;649;-70
2022/11/12 04:01:05;;;;;;;;;;;;;;;15.86;69.86;102764.91;1265599;23;1298;-70
2022/11/12 04:01:56;;;;;;;;;;;;;;;15.86;69.99;102770.28;1266113;23;665;-70
2022/11/12 04:02:46;;;;;;;;;;;;;;;15.86;70.07;102770.28;1266892;23;640;-70
2022/11/12 04:03:37;;;;;;;;;;;;;;;15.83;70.01;102767.75;1267034;23;637;-70
2022/11/12 04:08:34;;;;;;;;;;;;;;;15.82;70.04;102766.03;1267508;23;656;-71
2022/11/12 04:09:05;;;;;;;;;;;;;;;15.83;70.05;102768.63;1268373;23;653;-70
2022/11/12 04:09:55;;;;;;;;;;;;;;;15.82;70.19;102774.97;1267528;23;668;-70
2022/11/12 04:10:46;;;;;;;;;;;;;;;15.82;70.09;102774.09;1267466;23;688;-71
2022/11/12 04:11:36;;;;;;;;;;;;;;;15.80;70.19;102776.88;1265606;23;646;-70
2022/11/12 04:13:37;;;;;;;;;;;;;;;15.84;70.17;102773.06;1268192;23;657;-70
2022/11/12 04:14:27;;;;;;;;;;;;;;;15.84;69.89;102773.06;1266636;23;606;-71
2022/11/12 04:15:18;;;;;;;;;;;;;;;15.84;70.16;102782.94;1265910;23;772;-70
2022/11/12 04:21:49;;;;;;;;;;;;;;;15.80;69.68;102779.56;1268421;23;605;-71
2022/11/12 04:21:56;;;;;;;;;;;;;;;15.82;70.17;102776.78;1266727;23;1146;-70
2022/11/12 04:22:46;;;;;;;;;;;;;;;15.83;70.03;102786.59;1265906;23;603;-71
2022/11/12 04:23:37;;;;;;;;;;;;;;;15.80;70.18;102779.56;1267331;23;637;-70
2022/11/12 04:26:46;;;;;;;;;;;;;;;15.82;70.03;102776.78;1268302;23;661;-70
2022/11/12 04:27:36;;;;;;;;;;;;;;;15.84;70.19;102785.63;1265564;23;594;-70
2022/11/12 04:28:26;;;;;;;;;;;;;;;15.83;70.18;102789.28;1267467;23;629;-70
2022/11/12 04:30:26;;;;;;;;;;;;;;;15.83;70.18;102786.59;1268353;23;613;-70
2022/11/12 04:31:17;;;;;;;;;;;;;;;15.80;69.94;102786.75;1265734;23;641;-70
2022/11/12 04:32:07;;;;;;;;;;;;;;;15.81;70.05;102783.97;1261063;23;688;-71
2022/11/12 04:32:57;;;;;;;;;;;;;;;15.79;70.16;102788.56;1261834;23;602;-70
2022/11/12 04:33:48;;;;;;;;;;;;;;;15.80;70.14;102781.38;1268247;23;688;-71
2022/11/12 04:34:38;;;;;;;;;;;;;;;15.80;70.34;102787.63;1265562;23;618;-70
2022/11/12 04:35:29;;;;;;;;;;;;;;;15.80;70.12;102790.31;1265755;23;696;-71
2022/11/12 04:36:19;;;;;;;;;;;;;;;15.82;70.01;102784.84;1267003;23;660;-70
2022/11/12 04:37:10;;;;;;;;;;;;;;;15.83;70.52;102791.97;1267346;23;641;-70
2022/11/12 04:38:00;;;;;;;;;;;;;;;15.80;69.61;102786.75;1266515;23;992;-70
2022/11/12 04:38:50;;;;;;;;;;;;;;;15.79;70.05;102791.25;1267351;23;649;-70
2022/11/12 04:39:41;;;;;;;;;;;;;;;15.80;70.17;102784.06;1265695;23;559;-70
2022/11/12 04:45:08;;;;;;;;;;;;;;;15.82;70.01;102780.34;1268183;23;755;-70
2022/11/12 04:45:58;;;;;;;;;;;;;;;15.82;70.17;102774.97;1267298;23;622;-70